Amritsar, India

5:45 PM IST on August 28, 2014 (GMT +0530)
Amritsar | Change Station
CLOSE
Current Station
Airport
Location: Amritsar,
Elevation: 755 ft
Nearby Weather Stations

Elev 755 ft 31.71 °N, 74.80 °E | Updated 15 minutes ago

Haze
Haze
86 °F
Feels Like 93 °F
N
6
Wind Variable Wind from NW

Today
High -- | Low -- °F
--% Chance of Precip.
Yesterday
High -- | Low -- °F
Precip. -- in
6:03 AM 6:59 PM
Waxing Crescent, 8% visible
Pressure 29.65 in
Visibility 2.5 miles
Clouds Scattered Clouds 4000 ft
Scattered Clouds 10000 ft
Heat Index 93 °F
Dew Point 73 °F
Humidity 66%
Rainfall 0.00 in
Snow Depth Not available.
UV 1 out of 12
Pollen Not available.
Air Quality Not available.
Flu Activity Not available.
METAR VIAR 281200Z 32005KT 290V020 4000 HZ SCT040 SCT100 30/23 Q1004

More Conditions Fewer Conditions

Pressure 29.65 in
Visibility 2.5 miles
Clouds Scattered Clouds 4000 ft
Scattered Clouds 10000 ft
Heat Index 93 °F
Dew Point 73 °F
Humidity 66%
Rainfall 0.00 in
Snow Depth Not available.
UV 1 out of 12
Pollen Not available.
Air Quality Not available.
Flu Activity Not available.
METAR VIAR 281200Z 32005KT 290V020 4000 HZ SCT040 SCT100 30/23 Q1004

More Conditions Fewer Conditions

10-Day Weather Forecast

Almanac

Astronomy

Aug. 28, 2014 Rise Set
Actual Time 6:03 AM IST 6:59 PM IST
Civil Twilight 5:38 AM IST 7:24 PM IST
Nautical Twilight 5:08 AM IST 7:54 PM IST
Astronomical Twilight 4:38 AM IST 8:24 PM IST
Moon 8:18 AM IST 8:22 PM IST
Length of Visible Light 13h 46m
Length of Day
12h 56m
Tomorrow will be 1m 50s shorter.
Waxing Crescent, 8% of the Moon is Illuminated
Today
Waxing Crescent
Sep 2
First Quarter
Sep 8
Full
Sep 15
Last Quarter
Sep 24
New

Yesterday's Extremes

Country Highs Country Lows

Community

WunderPhotos

Upload Photos

1,747,932 photos uploaded!

Nearby

Snow Depth

Not available.

Earthquake Activity

City Distance Mag. Time & Date
No recent earthquake activity has been reported nearby.
Minimum magnitude displayed is 2.5.

Coastal Water Temperatures

Place Temperature
No Stations Reporting

Nearby Weather Stations